Time;durP1;ratioP1;P1;durP2;ratioP2;P2;SDS_P1;SDS_P2;PMS_P1;PMS_P2;Temp;Humidity;BMP_temperature;BMP_pressure;BME280_temperature;BME280_humidity;BME280_pressure;Samples;Min_cycle;Max_cycle;Signal;HPM_P1;HPM_P2
2021/05/20 00:01:52;;;;;;;18.42;11.88;;;;;;;;;;5050271;28;20025;-67
2021/05/20 00:04:18;;;;;;;16.73;10.95;;;;;;;;;;5049958;28;20108;-66
2021/05/20 00:06:45;;;;;;;18.67;12.38;;;;;;;;;;5049945;28;20040;-66
2021/05/20 00:09:11;;;;;;;19.88;12.00;;;;;;;;;;5050383;28;20100;-66
2021/05/20 00:11:37;;;;;;;20.58;11.77;;;;;;;;;;5050130;28;20025;-66
2021/05/20 00:14:03;;;;;;;19.60;13.57;;;;;;;;;;5049068;28;20044;-66
2021/05/20 00:16:29;;;;;;;16.15;11.23;;;;;;;;;;5051999;28;20100;-66
2021/05/20 00:18:55;;;;;;;19.33;12.00;;;;;;;;;;5053316;28;20036;-66
2021/05/20 00:21:21;;;;;;;15.73;9.98;;;;;;;;;;5054069;28;20032;-66
2021/05/20 00:23:48;;;;;;;16.00;10.65;;;;;;;;;;5054106;28;20032;-66
2021/05/20 00:26:14;;;;;;;16.05;10.60;;;;;;;;;;5041339;28;20028;-66
2021/05/20 00:28:40;;;;;;;14.88;9.98;;;;;;;;;;5033312;28;20032;-67
2021/05/20 00:31:06;;;;;;;13.57;9.18;;;;;;;;;;5033993;28;20527;-67
2021/05/20 00:33:32;;;;;;;14.70;9.50;;;;;;;;;;5032521;28;20025;-67
2021/05/20 00:35:58;;;;;;;12.98;7.93;;;;;;;;;;5033829;28;20716;-66
2021/05/20 00:38:24;;;;;;;13.50;9.50;;;;;;;;;;5035986;28;20019;-67
2021/05/20 00:40:50;;;;;;;16.83;11.05;;;;;;;;;;5052027;28;20028;-67
2021/05/20 00:43:17;;;;;;;18.77;11.23;;;;;;;;;;5051799;28;20075;-67
2021/05/20 00:45:43;;;;;;;17.13;11.48;;;;;;;;;;5053449;28;20021;-66
2021/05/20 00:48:09;;;;;;;15.95;10.50;;;;;;;;;;5052881;28;20078;-67
2021/05/20 00:50:35;;;;;;;17.65;11.77;;;;;;;;;;5052116;28;20094;-67
2021/05/20 00:53:01;;;;;;;18.65;12.05;;;;;;;;;;5053675;28;20028;-66
2021/05/20 00:55:31;;;;;;;17.70;12.07;;;;;;;;;;5051487;28;20021;-66
2021/05/20 00:58:00;;;;;;;17.92;11.88;;;;;;;;;;5046329;28;20024;-67
2021/05/20 01:00:26;;;;;;;19.55;12.20;;;;;;;;;;5053356;28;20051;-66
2021/05/20 01:02:52;;;;;;;19.08;11.93;;;;;;;;;;5052110;28;20040;-66
2021/05/20 01:05:18;;;;;;;18.75;12.68;;;;;;;;;;5053009;28;20086;-66
2021/05/20 01:07:44;;;;;;;19.15;12.88;;;;;;;;;;5052897;28;20033;-66
2021/05/20 01:10:10;;;;;;;20.77;13.00;;;;;;;;;;5052239;28;20480;-66
2021/05/20 01:12:36;;;;;;;20.75;13.27;;;;;;;;;;5042292;28;20037;-66
2021/05/20 01:15:03;;;;;;;18.75;12.85;;;;;;;;;;5032747;28;20383;-67
2021/05/20 01:17:29;;;;;;;20.17;13.23;;;;;;;;;;5032218;28;20029;-66
2021/05/20 01:19:55;;;;;;;21.10;13.25;;;;;;;;;;5032716;28;20112;-67
2021/05/20 01:22:21;;;;;;;22.63;13.45;;;;;;;;;;5032986;28;20511;-66
2021/05/20 01:24:47;;;;;;;20.63;13.73;;;;;;;;;;5032172;28;20147;-66
2021/05/20 01:27:14;;;;;;;21.40;14.38;;;;;;;;;;5032505;28;20037;-67
2021/05/20 01:29:40;;;;;;;21.50;14.50;;;;;;;;;;5036946;28;20087;-66
2021/05/20 01:32:07;;;;;;;20.42;13.95;;;;;;;;;;5051865;28;20076;-67
2021/05/20 01:34:34;;;;;;;21.33;14.82;;;;;;;;;;5052439;28;20028;-67
2021/05/20 01:37:00;;;;;;;23.15;15.68;;;;;;;;;;5051208;28;20040;-66
2021/05/20 01:39:27;;;;;;;21.52;14.88;;;;;;;;;;5051853;28;20025;-66
2021/05/20 01:41:53;;;;;;;22.23;15.70;;;;;;;;;;5052495;28;20032;-67
2021/05/20 01:44:20;;;;;;;23.98;15.50;;;;;;;;;;5052134;28;20459;-67
2021/05/20 01:46:46;;;;;;;23.48;16.13;;;;;;;;;;5051266;28;20061;-66
2021/05/20 01:49:12;;;;;;;23.33;15.45;;;;;;;;;;5052185;28;20033;-66
2021/05/20 01:51:38;;;;;;;23.13;15.45;;;;;;;;;;5051055;28;20467;-67
2021/05/20 01:54:05;;;;;;;22.20;15.55;;;;;;;;;;5051631;28;20029;-66
2021/05/20 01:56:35;;;;;;;24.38;16.45;;;;;;;;;;5034627;28;20033;-66
2021/05/20 01:59:01;;;;;;;23.48;16.42;;;;;;;;;;5050717;28;20040;-66
2021/05/20 02:01:27;;;;;;;22.73;16.63;;;;;;;;;;5051662;28;20036;-67
2021/05/20 02:03:53;;;;;;;23.50;16.58;;;;;;;;;;5051704;28;20040;-66
2021/05/20 02:06:19;;;;;;;25.98;18.17;;;;;;;;;;5051505;28;20079;-66
2021/05/20 02:08:45;;;;;;;24.73;16.50;;;;;;;;;;5051169;28;20036;-66
2021/05/20 02:11:11;;;;;;;24.85;17.48;;;;;;;;;;5051185;28;20021;-66
2021/05/20 02:13:37;;;;;;;23.55;16.98;;;;;;;;;;5051459;28;20029;-66
2021/05/20 02:16:04;;;;;;;23.23;17.05;;;;;;;;;;5046304;28;20462;-67
2021/05/20 02:18:30;;;;;;;21.98;15.90;;;;;;;;;;5050828;28;20482;-67
2021/05/20 02:20:56;;;;;;;24.10;17.38;;;;;;;;;;5050820;28;20021;-67
2021/05/20 02:23:22;;;;;;;24.40;17.17;;;;;;;;;;5051036;28;20056;-66
2021/05/20 02:25:48;;;;;;;25.77;17.67;;;;;;;;;;5051103;28;20040;-67
2021/05/20 02:28:14;;;;;;;25.17;17.35;;;;;;;;;;5051528;28;20064;-66
2021/05/20 02:30:40;;;;;;;24.85;17.98;;;;;;;;;;5051024;28;20108;-67
2021/05/20 02:33:06;;;;;;;26.15;17.75;;;;;;;;;;5046255;28;20064;-67
2021/05/20 02:35:32;;;;;;;25.05;18.40;;;;;;;;;;5030551;28;20399;-67
2021/05/20 02:37:58;;;;;;;25.75;17.00;;;;;;;;;;5031029;28;20064;-67
2021/05/20 02:40:24;;;;;;;25.23;17.67;;;;;;;;;;5030800;28;20030;-67
2021/05/20 02:42:51;;;;;;;22.38;16.98;;;;;;;;;;5028517;28;20041;-67
2021/05/20 02:45:19;;;;;;;24.90;18.45;;;;;;;;;;5030656;28;20025;-67
2021/05/20 02:47:45;;;;;;;27.13;19.80;;;;;;;;;;5030019;28;20048;-67
2021/05/20 02:50:11;;;;;;;24.75;19.48;;;;;;;;;;5042157;28;20064;-66
2021/05/20 02:52:38;;;;;;;26.90;19.83;;;;;;;;;;5031453;28;20053;-67
2021/05/20 02:55:04;;;;;;;27.23;20.83;;;;;;;;;;5035654;28;20017;-67
2021/05/20 02:57:31;;;;;;;25.27;19.58;;;;;;;;;;5050706;28;20029;-67
2021/05/20 02:59:57;;;;;;;27.88;20.88;;;;;;;;;;5050909;28;20048;-66
2021/05/20 03:02:23;;;;;;;27.70;20.77;;;;;;;;;;5050318;28;20062;-67
2021/05/20 03:04:51;;;;;;;29.33;22.25;;;;;;;;;;5050948;28;20033;-67
2021/05/20 03:07:18;;;;;;;28.25;21.00;;;;;;;;;;5049714;28;20535;-67
2021/05/20 03:09:44;;;;;;;27.80;20.63;;;;;;;;;;5049613;28;20033;-67
2021/05/20 03:12:10;;;;;;;26.83;20.20;;;;;;;;;;5049891;28;20120;-67
2021/05/20 03:14:36;;;;;;;27.75;19.88;;;;;;;;;;5030282;28;20510;-67
2021/05/20 03:17:09;;;;;;;26.92;19.58;;;;;;;;;;5037325;28;20029;-67
2021/05/20 03:19:35;;;;;;;29.55;19.95;;;;;;;;;;5049626;28;20021;-67
2021/05/20 03:22:01;;;;;;;25.83;18.95;;;;;;;;;;5049048;28;20606;-67
2021/05/20 03:24:27;;;;;;;25.83;18.92;;;;;;;;;;5049172;28;20047;-67
2021/05/20 03:26:53;;;;;;;26.15;17.90;;;;;;;;;;5049411;28;20025;-66
2021/05/20 03:29:19;;;;;;;26.08;17.33;;;;;;;;;;5050747;28;20127;-67
2021/05/20 03:31:45;;;;;;;23.90;16.60;;;;;;;;;;5049773;28;20103;-67
2021/05/20 03:34:11;;;;;;;23.17;16.75;;;;;;;;;;5035659;28;20029;-67
2021/05/20 03:36:38;;;;;;;22.13;15.00;;;;;;;;;;5044219;28;20028;-67
2021/05/20 03:39:04;;;;;;;21.38;15.10;;;;;;;;;;5049349;28;20032;-67
2021/05/20 03:41:30;;;;;;;24.05;17.00;;;;;;;;;;5049755;28;20033;-67
2021/05/20 03:43:56;;;;;;;24.40;17.40;;;;;;;;;;5049507;28;20033;-67
2021/05/20 03:46:22;;;;;;;22.20;16.13;;;;;;;;;;5048974;28;20142;-67
2021/05/20 03:48:48;;;;;;;23.63;16.70;;;;;;;;;;5049375;28;20025;-67
2021/05/20 03:51:14;;;;;;;23.38;16.17;;;;;;;;;;5051395;28;20029;-67
2021/05/20 03:53:40;;;;;;;23.95;16.83;;;;;;;;;;5052971;28;20025;-67
2021/05/20 03:56:06;;;;;;;21.20;15.50;;;;;;;;;;5040275;28;20582;-67
2021/05/20 03:58:32;;;;;;;21.85;15.88;;;;;;;;;;5052923;28;20467;-67
2021/05/20 04:00:58;;;;;;;25.30;16.98;;;;;;;;;;5053350;28;20450;-67
2021/05/20 04:03:28;;;;;;;25.02;17.10;;;;;;;;;;5052822;28;20127;-67
2021/05/20 04:05:54;;;;;;;24.20;16.60;;;;;;;;;;5053171;28;20029;-67
2021/05/20 04:08:20;;;;;;;24.92;17.67;;;;;;;;;;5052426;28;20040;-67
2021/05/20 04:10:47;;;;;;;24.58;17.88;;;;;;;;;;5053326;28;20060;-67
2021/05/20 04:13:13;;;;;;;30.30;21.38;;;;;;;;;;5052913;28;20040;-67
2021/05/20 04:15:39;;;;;;;26.17;18.40;;;;;;;;;;5052629;28;20360;-67
2021/05/20 04:18:05;;;;;;;25.42;16.90;;;;;;;;;;5053256;28;20463;-67
2021/05/20 04:20:31;;;;;;;24.15;17.13;;;;;;;;;;5053309;28;20079;-67
2021/05/20 04:22:57;;;;;;;24.58;18.65;;;;;;;;;;5052061;28;20025;-67
2021/05/20 04:25:23;;;;;;;26.00;20.33;;;;;;;;;;5047027;28;20124;-67
2021/05/20 04:27:49;;;;;;;25.85;19.50;;;;;;;;;;5049918;28;20378;-67
2021/05/20 04:30:16;;;;;;;25.33;19.15;;;;;;;;;;5050942;28;20147;-67
2021/05/20 04:32:42;;;;;;;27.70;21.58;;;;;;;;;;5051200;28;20031;-67
2021/05/20 04:35:08;;;;;;;24.95;18.48;;;;;;;;;;5037968;28;20095;-66
2021/05/20 04:37:34;;;;;;;24.92;17.98;;;;;;;;;;5040711;28;20033;-67
2021/05/20 04:40:00;;;;;;;23.85;18.63;;;;;;;;;;5052321;28;20040;-67
2021/05/20 04:42:26;;;;;;;25.90;18.42;;;;;;;;;;5048387;28;20027;-67
2021/05/20 04:44:52;;;;;;;25.33;17.48;;;;;;;;;;5051326;28;20044;-66
2021/05/20 04:47:18;;;;;;;26.10;17.27;;;;;;;;;;5052321;28;20071;-67
2021/05/20 04:49:44;;;;;;;22.02;16.92;;;;;;;;;;5045441;28;20064;-67
2021/05/20 04:52:10;;;;;;;21.52;15.45;;;;;;;;;;5051486;28;20021;-67
2021/05/20 04:54:36;;;;;;;23.23;16.77;;;;;;;;;;5046787;28;20040;-67
2021/05/20 04:57:02;;;;;;;22.52;15.55;;;;;;;;;;5052605;28;20028;-67
2021/05/20 04:59:28;;;;;;;23.23;16.67;;;;;;;;;;5052084;28;20112;-67
2021/05/20 05:01:54;;;;;;;21.63;14.75;;;;;;;;;;5033489;28;20034;-66
2021/05/20 05:04:21;;;;;;;21.50;14.32;;;;;;;;;;5032296;28;20100;-67
2021/05/20 05:06:47;;;;;;;21.58;14.38;;;;;;;;;;5031862;28;20804;-67
2021/05/20 05:09:13;;;;;;;24.17;16.40;;;;;;;;;;5033578;28;20026;-67
2021/05/20 05:11:39;;;;;;;21.88;14.60;;;;;;;;;;5032660;28;20483;-67
2021/05/20 05:14:05;;;;;;;22.00;15.07;;;;;;;;;;5032705;28;20612;-67
2021/05/20 05:16:31;;;;;;;22.25;14.63;;;;;;;;;;5048533;28;20068;-67
2021/05/20 05:18:57;;;;;;;21.00;14.77;;;;;;;;;;5049871;28;20141;-67
2021/05/20 05:21:23;;;;;;;21.40;14.32;;;;;;;;;;5047279;28;20109;-67
2021/05/20 05:23:49;;;;;;;18.92;13.05;;;;;;;;;;5039598;28;20029;-67
2021/05/20 05:26:15;;;;;;;21.77;14.32;;;;;;;;;;5037366;28;20547;-67
2021/05/20 05:28:41;;;;;;;16.75;11.57;;;;;;;;;;5044976;28;20032;-67
2021/05/20 05:31:09;;;;;;;17.13;10.77;;;;;;;;;;5040659;28;20044;-67
2021/05/20 05:33:35;;;;;;;17.30;10.93;;;;;;;;;;5033256;28;20535;-67
2021/05/20 05:36:01;;;;;;;16.48;10.30;;;;;;;;;;5036840;28;20827;-67
2021/05/20 05:38:27;;;;;;;16.90;9.15;;;;;;;;;;5034485;28;20491;-68
2021/05/20 05:40:53;;;;;;;13.38;8.52;;;;;;;;;;5046767;28;20483;-68
2021/05/20 05:43:19;;;;;;;11.77;7.43;;;;;;;;;;5038815;28;20940;-68
2021/05/20 05:45:45;;;;;;;17.38;9.88;;;;;;;;;;5055285;28;20075;-68
2021/05/20 05:48:12;;;;;;;17.60;8.65;;;;;;;;;;5042873;28;20033;-68
2021/05/20 05:50:40;;;;;;;13.65;8.05;;;;;;;;;;5031956;28;20033;-68
2021/05/20 05:53:07;;;;;;;11.88;7.85;;;;;;;;;;5041743;28;20025;-68
2021/05/20 05:55:33;;;;;;;9.75;7.25;;;;;;;;;;5039125;28;20060;-68
2021/05/20 05:57:59;;;;;;;13.55;7.90;;;;;;;;;;5042638;28;20124;-68
2021/05/20 06:00:25;;;;;;;11.65;7.80;;;;;;;;;;5040745;28;20067;-68
2021/05/20 06:02:51;;;;;;;10.70;7.28;;;;;;;;;;5036979;28;20044;-68
2021/05/20 06:05:18;;;;;;;11.20;7.32;;;;;;;;;;5044901;28;20025;-68
2021/05/20 06:07:45;;;;;;;12.75;8.07;;;;;;;;;;5047668;28;20073;-68
2021/05/20 06:10:12;;;;;;;11.73;8.27;;;;;;;;;;5046110;28;20421;-68
2021/05/20 06:12:38;;;;;;;14.82;7.13;;;;;;;;;;5045128;28;20053;-68
2021/05/20 06:15:05;;;;;;;15.70;8.60;;;;;;;;;;5038992;28;20031;-68
2021/05/20 06:17:31;;;;;;;13.13;8.30;;;;;;;;;;5046411;28;20046;-68
2021/05/20 06:19:57;;;;;;;11.05;7.25;;;;;;;;;;5043729;28;20133;-68
2021/05/20 06:22:23;;;;;;;10.63;7.35;;;;;;;;;;5030626;28;20029;-69
2021/05/20 06:24:50;;;;;;;13.23;6.63;;;;;;;;;;5042070;28;20108;-69
2021/05/20 06:27:16;;;;;;;10.80;6.70;;;;;;;;;;5047305;28;20037;-69
2021/05/20 06:29:42;;;;;;;9.00;6.00;;;;;;;;;;5042758;28;20021;-69
2021/05/20 06:32:08;;;;;;;12.00;6.53;;;;;;;;;;5037189;28;20048;-68
2021/05/20 06:34:34;;;;;;;13.40;6.55;;;;;;;;;;5030875;28;20036;-68
2021/05/20 06:37:02;;;;;;;13.75;6.00;;;;;;;;;;5033625;28;20565;-66
2021/05/20 06:39:30;;;;;;;9.77;5.40;;;;;;;;;;5032735;28;20029;-68
2021/05/20 06:41:56;;;;;;;12.55;6.30;;;;;;;;;;5017673;28;20127;-68
2021/05/20 06:44:23;;;;;;;10.30;6.55;;;;;;;;;;5039468;28;20468;-68
2021/05/20 06:46:49;;;;;;;13.60;8.13;;;;;;;;;;5036490;28;20099;-68
2021/05/20 06:49:16;;;;;;;11.25;6.13;;;;;;;;;;5038809;28;20055;-73
2021/05/20 06:51:42;;;;;;;8.93;5.85;;;;;;;;;;5040140;28;20025;-74
2021/05/20 06:54:08;;;;;;;9.93;5.63;;;;;;;;;;5026777;28;20390;-75
2021/05/20 06:56:34;;;;;;;8.65;5.70;;;;;;;;;;5035323;28;20025;-74
2021/05/20 07:01:46;;;;;;;14.57;6.38;;;;;;;;;;5036237;28;20049;-73
2021/05/20 07:04:13;;;;;;;18.58;9.48;;;;;;;;;;5039700;28;20044;-74
2021/05/20 07:06:39;;;;;;;10.90;6.88;;;;;;;;;;5042670;28;20041;-75
2021/05/20 07:09:05;;;;;;;15.25;8.32;;;;;;;;;;5040146;28;20025;-73
2021/05/20 07:11:32;;;;;;;10.15;6.18;;;;;;;;;;5037886;28;20066;-68
2021/05/20 07:13:59;;;;;;;17.35;6.85;;;;;;;;;;5039933;28;20075;-68
2021/05/20 07:16:25;;;;;;;16.58;6.65;;;;;;;;;;5036575;28;20650;-68
2021/05/20 07:18:51;;;;;;;7.30;5.75;;;;;;;;;;5034147;28;20022;-68
2021/05/20 07:21:17;;;;;;;11.90;6.20;;;;;;;;;;5039350;28;20033;-68
2021/05/20 07:23:43;;;;;;;9.95;6.28;;;;;;;;;;5037830;28;20096;-68
2021/05/20 07:26:09;;;;;;;12.70;7.20;;;;;;;;;;5046208;28;20061;-68
2021/05/20 07:28:37;;;;;;;17.58;7.85;;;;;;;;;;5044028;28;20083;-68
2021/05/20 07:31:03;;;;;;;9.13;6.07;;;;;;;;;;5046458;28;20493;-68
2021/05/20 07:33:30;;;;;;;9.45;6.72;;;;;;;;;;5049202;28;20109;-68
2021/05/20 07:35:56;;;;;;;10.77;7.03;;;;;;;;;;5037743;28;20037;-73
2021/05/20 07:38:22;;;;;;;11.30;6.63;;;;;;;;;;5040330;28;20079;-74
2021/05/20 07:40:48;;;;;;;16.65;6.88;;;;;;;;;;5044757;28;20078;-75
2021/05/20 07:43:14;;;;;;;11.38;6.78;;;;;;;;;;5039433;28;20116;-76
2021/05/20 07:45:40;;;;;;;17.48;7.35;;;;;;;;;;5041029;28;20417;-74
2021/05/20 07:48:07;;;;;;;12.85;7.72;;;;;;;;;;5019826;28;20029;-74
2021/05/20 07:50:33;;;;;;;15.80;8.07;;;;;;;;;;5037279;28;20052;-75
2021/05/20 07:52:59;;;;;;;12.07;7.82;;;;;;;;;;5044329;28;20122;-74
2021/05/20 07:55:25;;;;;;;11.43;7.95;;;;;;;;;;5044206;28;20025;-76
2021/05/20 07:57:53;;;;;;;26.65;8.32;;;;;;;;;;5041157;28;20531;-74
2021/05/20 08:00:19;;;;;;;11.57;7.35;;;;;;;;;;5042949;28;20028;-75
2021/05/20 08:03:08;;;;;;;12.88;7.55;;;;;;;;;;5049601;28;20065;-74
2021/05/20 08:13:14;;;;;;;13.40;8.43;;;;;;;;;;5035475;28;20037;-75
2021/05/20 08:15:40;;;;;;;10.60;6.90;;;;;;;;;;5037731;28;20025;-75
2021/05/20 08:18:06;;;;;;;10.02;6.82;;;;;;;;;;5043452;28;20033;-74
2021/05/20 08:20:32;;;;;;;12.55;7.57;;;;;;;;;;5047457;28;20025;-74
2021/05/20 08:22:58;;;;;;;12.90;6.97;;;;;;;;;;5041997;28;20071;-73
2021/05/20 08:25:24;;;;;;;10.07;6.40;;;;;;;;;;5042685;28;20044;-74
2021/05/20 08:27:50;;;;;;;13.00;8.45;;;;;;;;;;5036436;28;20037;-75
2021/05/20 08:30:18;;;;;;;9.32;6.30;;;;;;;;;;5024626;28;20017;-67
2021/05/20 08:32:45;;;;;;;5.53;4.73;;;;;;;;;;5043966;28;20518;-68
2021/05/20 08:35:11;;;;;;;13.13;8.50;;;;;;;;;;5033482;28;20290;-68
2021/05/20 08:37:39;;;;;;;10.45;6.68;;;;;;;;;;5036620;28;20374;-68
2021/05/20 08:40:05;;;;;;;13.50;7.25;;;;;;;;;;5013348;28;20021;-68
2021/05/20 08:42:32;;;;;;;14.45;6.30;;;;;;;;;;5036870;28;20033;-67
2021/05/20 08:44:58;;;;;;;8.57;5.60;;;;;;;;;;5036843;28;20021;-67
2021/05/20 08:47:24;;;;;;;17.48;8.73;;;;;;;;;;5039772;28;20072;-68
2021/05/20 08:49:50;;;;;;;13.55;7.82;;;;;;;;;;5037123;28;20049;-68
2021/05/20 08:52:16;;;;;;;16.98;8.35;;;;;;;;;;5039764;28;20024;-68
2021/05/20 08:54:42;;;;;;;16.73;9.10;;;;;;;;;;5037932;28;20053;-67
2021/05/20 08:57:08;;;;;;;15.65;8.40;;;;;;;;;;5037219;28;20925;-68
2021/05/20 08:59:35;;;;;;;8.68;5.20;;;;;;;;;;5040629;28;20029;-73
2021/05/20 09:02:01;;;;;;;9.45;6.40;;;;;;;;;;5039525;28;20115;-68
2021/05/20 09:04:27;;;;;;;14.18;8.40;;;;;;;;;;5038792;28;20462;-68
2021/05/20 09:07:02;;;;;;;12.93;7.57;;;;;;;;;;5040029;28;20065;-68
2021/05/20 09:09:37;;;;;;;10.95;6.90;;;;;;;;;;5028716;28;20034;-71
2021/05/20 09:12:04;;;;;;;9.13;6.00;;;;;;;;;;5018683;28;20029;-74
2021/05/20 09:14:33;;;;;;;14.90;8.50;;;;;;;;;;5018440;28;20087;-68
2021/05/20 09:17:15;;;;;;;15.80;7.53;;;;;;;;;;5039509;28;20547;-68
2021/05/20 09:19:43;;;;;;;15.57;10.23;;;;;;;;;;5035081;28;20037;-68
2021/05/20 09:22:09;;;;;;;9.40;6.28;;;;;;;;;;5040988;28;20052;-68
2021/05/20 09:24:45;;;;;;;9.32;6.20;;;;;;;;;;5035223;28;20068;-68
2021/05/20 09:27:23;;;;;;;11.93;7.35;;;;;;;;;;5040107;28;20047;-68
2021/05/20 09:30:08;;;;;;;9.15;6.07;;;;;;;;;;5034870;28;20032;-68
2021/05/20 09:32:35;;;;;;;11.57;6.93;;;;;;;;;;5036584;28;20017;-68
2021/05/20 09:35:01;;;;;;;10.80;6.25;;;;;;;;;;5035696;28;20740;-68
2021/05/20 09:37:27;;;;;;;9.63;6.57;;;;;;;;;;5039505;28;20505;-69
2021/05/20 09:40:00;;;;;;;8.88;6.10;;;;;;;;;;5026653;28;20025;-68
2021/05/20 09:42:29;;;;;;;8.70;5.38;;;;;;;;;;5025381;28;20711;-68
2021/05/20 09:44:55;;;;;;;;;;;;;;;;;;5037914;28;20028;-69
2021/05/20 09:47:25;;;;;;;9.45;5.55;;;;;;;;;;5044618;28;20325;-69
2021/05/20 09:50:01;;;;;;;10.57;6.60;;;;;;;;;;5038299;28;20025;-68
2021/05/20 09:52:27;;;;;;;8.90;5.95;;;;;;;;;;5048295;28;20033;-68
2021/05/20 09:54:54;;;;;;;8.88;5.75;;;;;;;;;;5042637;28;20083;-69
2021/05/20 09:57:30;;;;;;;10.55;6.05;;;;;;;;;;5038985;28;20052;-69
2021/05/20 09:59:59;;;;;;;6.47;4.80;;;;;;;;;;5047401;28;20040;-68
2021/05/20 10:02:26;;;;;;;6.28;4.03;;;;;;;;;;5046199;28;20056;-69
2021/05/20 10:04:53;;;;;;;7.32;4.65;;;;;;;;;;5047392;28;20040;-69
2021/05/20 10:07:26;;;;;;;4.55;3.60;;;;;;;;;;5039268;28;20384;-69
2021/05/20 10:09:52;;;;;;;7.65;3.80;;;;;;;;;;5032544;28;20127;-72
2021/05/20 10:12:18;;;;;;;12.10;4.82;;;;;;;;;;5038428;28;20014;-71
2021/05/20 10:14:44;;;;;;;7.47;4.60;;;;;;;;;;5043665;28;20052;-70
2021/05/20 10:17:10;;;;;;;11.88;4.20;;;;;;;;;;5047629;28;20040;-70
2021/05/20 10:19:37;;;;;;;7.28;4.95;;;;;;;;;;5042451;28;20043;-72
2021/05/20 10:22:03;;;;;;;13.50;4.63;;;;;;;;;;5041242;28;20578;-73
